This is the latest recevied weather packets stored in our database for station/object KD4KKF. If no packets are shown the sender has not sent any weather packets the latest 10 day(s).
| Time | Temp. | Humidity | Pressure | Rain* | Wind** | Luminosity | Snow |
|---|---|---|---|---|---|---|---|
| 1777993474 | 21.67° C | 70% | 1013.4 hPa | 0 mm | - | 731 W/m² | - |
| 1777993173 | 22.22° C | 69% | 1013.5 hPa | 0 mm | - | 720 W/m² | - |
| 1777992872 | 21.67° C | 71% | 1013.4 hPa | 0 mm | - | 771 W/m² | - |
| 1777992570 | 21.11° C | 72% | 1013.5 hPa | 0 mm | - | 766 W/m² | - |
| 1777992268 | 21.11° C | 72% | 1013.4 hPa | 0 mm | - | 738 W/m² | - |
| 1777991964 | 20.56° C | 75% | 1013.6 hPa | 0 mm | - | 691 W/m² | - |
| 1777991656 | 20.56° C | 74% | 1013.3 hPa | 0 mm | - | 665 W/m² | - |
| 1777991352 | 20.56° C | 76% | 1013.2 hPa | 0 mm | - | 666 W/m² | - |
| 1777991050 | 20.56° C | 75% | 1013 hPa | 0 mm | - | 638 W/m² | - |
| 1777990747 | 20° C | 76% | 1013.2 hPa | 0 mm | - | 588 W/m² | - |
| 1777990444 | 20° C | 76% | 1013.2 hPa | 0 mm | - | 537 W/m² | - |
| 1777989838 | 18.89° C | 80% | 1013.2 hPa | 0 mm | - | 539 W/m² | - |
| 1777989535 | 18.89° C | 79% | 1013.1 hPa | 0 mm | - | 542 W/m² | - |
| 1777989231 | 18.89° C | 79% | 1013 hPa | 0 mm | - | 483 W/m² | - |
| 1777988927 | 18.33° C | 81% | 1013.2 hPa | 0 mm | - | 429 W/m² | - |
| 1777988624 | 17.78° C | 80% | 1013 hPa | 0 mm | - | 407 W/m² | - |
| 1777988321 | 17.78° C | 83% | 1013 hPa | 0 mm | - | 246 W/m² | - |
| 1777988017 | 18.33° C | 81% | 1013.2 hPa | 0 mm | - | 215 W/m² | - |
| 1777987713 | 18.33° C | 79% | 1013.2 hPa | 0 mm | - | 358 W/m² | - |
| 1777987411 | 17.78° C | 83% | 1013.2 hPa | 0 mm | - | 329 W/m² | - |
| 1777987107 | 17.78° C | 80% | 1013 hPa | 0 mm | - | 148 W/m² | - |
| 1777986805 | 17.22° C | 82% | 1013.2 hPa | 0 mm | - | 91 W/m² | - |
| 1777986503 | 17.78° C | 81% | 1013 hPa | 0 mm | - | 230 W/m² | - |
| 1777986200 | 17.78° C | 81% | 1013 hPa | 0 mm | - | 281 W/m² | - |
| 1777985897 | 17.22° C | 82% | 1013.1 hPa | 0 mm | - | 267 W/m² | - |
* Rain latest hour (hover to see other rain measurements)
** Current wind speed in m/s (hover to see current wind gust speed)